sensor_id;sensor_type;location;lat;lon;timestamp;P1;durP1;ratioP1;P2;durP2;ratioP2
29568;SDS011;16501;51.462;14.346;2023-08-24T00:00:39;9.18;;;3.58;;
29568;SDS011;16501;51.462;14.346;2023-08-24T00:03:05;5.25;;;3.60;;
29568;SDS011;16501;51.462;14.346;2023-08-24T00:05:35;4.18;;;3.50;;
29568;SDS011;16501;51.462;14.346;2023-08-24T00:08:07;7.53;;;3.70;;
29568;SDS011;16501;51.462;14.346;2023-08-24T00:10:33;6.78;;;3.90;;
29568;SDS011;16501;51.462;14.346;2023-08-24T00:12:59;9.25;;;3.83;;
29568;SDS011;16501;51.462;14.346;2023-08-24T00:15:25;5.93;;;3.65;;
29568;SDS011;16501;51.462;14.346;2023-08-24T00:17:50;10.55;;;3.83;;
29568;SDS011;16501;51.462;14.346;2023-08-24T00:20:16;5.85;;;4.10;;
29568;SDS011;16501;51.462;14.346;2023-08-24T00:22:41;10.73;;;4.40;;
29568;SDS011;16501;51.462;14.346;2023-08-24T00:25:07;6.68;;;3.80;;
29568;SDS011;16501;51.462;14.346;2023-08-24T00:27:33;4.80;;;3.70;;
29568;SDS011;16501;51.462;14.346;2023-08-24T00:29:59;5.05;;;3.85;;
29568;SDS011;16501;51.462;14.346;2023-08-24T00:32:24;5.00;;;4.55;;
29568;SDS011;16501;51.462;14.346;2023-08-24T00:34:49;9.02;;;4.18;;
29568;SDS011;16501;51.462;14.346;2023-08-24T00:37:15;7.28;;;3.80;;
29568;SDS011;16501;51.462;14.346;2023-08-24T00:39:40;5.68;;;4.25;;
29568;SDS011;16501;51.462;14.346;2023-08-24T00:42:06;7.32;;;4.10;;
29568;SDS011;16501;51.462;14.346;2023-08-24T00:44:31;5.25;;;3.78;;
29568;SDS011;16501;51.462;14.346;2023-08-24T00:46:57;7.80;;;4.32;;
29568;SDS011;16501;51.462;14.346;2023-08-24T00:49:23;4.95;;;4.05;;
29568;SDS011;16501;51.462;14.346;2023-08-24T00:51:49;6.93;;;3.67;;
29568;SDS011;16501;51.462;14.346;2023-08-24T00:54:15;5.03;;;4.22;;
29568;SDS011;16501;51.462;14.346;2023-08-24T00:56:41;5.15;;;3.90;;
29568;SDS011;16501;51.462;14.346;2023-08-24T00:59:06;9.32;;;4.20;;
29568;SDS011;16501;51.462;14.346;2023-08-24T01:01:32;8.27;;;4.43;;
29568;SDS011;16501;51.462;14.346;2023-08-24T01:03:57;4.68;;;4.20;;
29568;SDS011;16501;51.462;14.346;2023-08-24T01:06:22;5.78;;;4.38;;
29568;SDS011;16501;51.462;14.346;2023-08-24T01:08:47;10.98;;;4.60;;
29568;SDS011;16501;51.462;14.346;2023-08-24T01:11:27;5.85;;;4.32;;
29568;SDS011;16501;51.462;14.346;2023-08-24T01:14:04;5.07;;;3.88;;
29568;SDS011;16501;51.462;14.346;2023-08-24T01:16:34;9.85;;;4.15;;
29568;SDS011;16501;51.462;14.346;2023-08-24T01:19:05;10.65;;;4.63;;
29568;SDS011;16501;51.462;14.346;2023-08-24T01:21:36;8.27;;;4.13;;
29568;SDS011;16501;51.462;14.346;2023-08-24T01:24:12;5.85;;;4.10;;
29568;SDS011;16501;51.462;14.346;2023-08-24T01:26:42;6.53;;;3.67;;
29568;SDS011;16501;51.462;14.346;2023-08-24T01:29:09;7.43;;;4.07;;
29568;SDS011;16501;51.462;14.346;2023-08-24T01:31:35;11.18;;;4.00;;
29568;SDS011;16501;51.462;14.346;2023-08-24T01:34:00;5.57;;;4.10;;
29568;SDS011;16501;51.462;14.346;2023-08-24T01:36:26;4.57;;;4.10;;
29568;SDS011;16501;51.462;14.346;2023-08-24T01:38:54;6.00;;;3.67;;
29568;SDS011;16501;51.462;14.346;2023-08-24T01:41:31;4.30;;;3.92;;
29568;SDS011;16501;51.462;14.346;2023-08-24T01:44:03;4.57;;;4.10;;
29568;SDS011;16501;51.462;14.346;2023-08-24T01:46:31;5.13;;;4.40;;
29568;SDS011;16501;51.462;14.346;2023-08-24T01:48:58;5.18;;;4.20;;
29568;SDS011;16501;51.462;14.346;2023-08-24T01:51:24;5.95;;;4.05;;
29568;SDS011;16501;51.462;14.346;2023-08-24T01:53:49;5.75;;;4.85;;
29568;SDS011;16501;51.462;14.346;2023-08-24T01:56:15;5.82;;;4.35;;
29568;SDS011;16501;51.462;14.346;2023-08-24T01:58:41;8.30;;;4.20;;
29568;SDS011;16501;51.462;14.346;2023-08-24T02:01:07;6.18;;;4.80;;
29568;SDS011;16501;51.462;14.346;2023-08-24T02:03:33;5.72;;;4.20;;
29568;SDS011;16501;51.462;14.346;2023-08-24T02:05:58;5.60;;;4.78;;
29568;SDS011;16501;51.462;14.346;2023-08-24T02:08:23;7.40;;;4.22;;
29568;SDS011;16501;51.462;14.346;2023-08-24T02:10:52;7.82;;;4.47;;
29568;SDS011;16501;51.462;14.346;2023-08-24T02:13:17;4.90;;;4.10;;
29568;SDS011;16501;51.462;14.346;2023-08-24T02:15:42;9.55;;;4.20;;
29568;SDS011;16501;51.462;14.346;2023-08-24T02:18:08;6.53;;;4.28;;
29568;SDS011;16501;51.462;14.346;2023-08-24T02:20:39;6.70;;;4.50;;
29568;SDS011;16501;51.462;14.346;2023-08-24T02:23:05;11.32;;;4.53;;
29568;SDS011;16501;51.462;14.346;2023-08-24T02:25:30;5.43;;;4.40;;
29568;SDS011;16501;51.462;14.346;2023-08-24T02:27:56;5.15;;;4.30;;
29568;SDS011;16501;51.462;14.346;2023-08-24T02:30:21;4.72;;;3.97;;
29568;SDS011;16501;51.462;14.346;2023-08-24T02:32:46;6.70;;;4.55;;
29568;SDS011;16501;51.462;14.346;2023-08-24T02:35:12;6.53;;;4.75;;
29568;SDS011;16501;51.462;14.346;2023-08-24T02:37:37;8.32;;;4.72;;
29568;SDS011;16501;51.462;14.346;2023-08-24T02:40:02;6.30;;;4.80;;
29568;SDS011;16501;51.462;14.346;2023-08-24T02:42:30;5.07;;;4.32;;
29568;SDS011;16501;51.462;14.346;2023-08-24T02:44:56;8.52;;;4.72;;
29568;SDS011;16501;51.462;14.346;2023-08-24T02:47:21;9.82;;;4.70;;
29568;SDS011;16501;51.462;14.346;2023-08-24T02:49:46;6.05;;;4.93;;
29568;SDS011;16501;51.462;14.346;2023-08-24T02:52:11;4.55;;;4.10;;
29568;SDS011;16501;51.462;14.346;2023-08-24T02:54:37;5.43;;;4.78;;
29568;SDS011;16501;51.462;14.346;2023-08-24T02:57:02;7.43;;;4.53;;
29568;SDS011;16501;51.462;14.346;2023-08-24T02:59:27;7.25;;;4.65;;
29568;SDS011;16501;51.462;14.346;2023-08-24T03:01:53;5.15;;;4.32;;
29568;SDS011;16501;51.462;14.346;2023-08-24T03:04:18;5.82;;;4.40;;
29568;SDS011;16501;51.462;14.346;2023-08-24T03:06:44;5.97;;;4.63;;
29568;SDS011;16501;51.462;14.346;2023-08-24T03:09:09;6.43;;;4.43;;
29568;SDS011;16501;51.462;14.346;2023-08-24T03:11:35;5.93;;;4.70;;
29568;SDS011;16501;51.462;14.346;2023-08-24T03:14:02;8.43;;;4.63;;
29568;SDS011;16501;51.462;14.346;2023-08-24T03:16:27;6.53;;;5.10;;
29568;SDS011;16501;51.462;14.346;2023-08-24T03:18:53;4.95;;;4.55;;
29568;SDS011;16501;51.462;14.346;2023-08-24T03:21:18;5.18;;;4.55;;
29568;SDS011;16501;51.462;14.346;2023-08-24T03:23:43;8.57;;;4.60;;
29568;SDS011;16501;51.462;14.346;2023-08-24T03:26:08;5.25;;;4.40;;
29568;SDS011;16501;51.462;14.346;2023-08-24T03:28:34;5.90;;;4.47;;
29568;SDS011;16501;51.462;14.346;2023-08-24T03:30:59;6.78;;;4.78;;
29568;SDS011;16501;51.462;14.346;2023-08-24T03:33:25;8.95;;;4.47;;
29568;SDS011;16501;51.462;14.346;2023-08-24T03:35:51;7.03;;;5.07;;
29568;SDS011;16501;51.462;14.346;2023-08-24T03:38:16;8.23;;;4.70;;
29568;SDS011;16501;51.462;14.346;2023-08-24T03:40:41;5.80;;;4.90;;
29568;SDS011;16501;51.462;14.346;2023-08-24T03:43:07;7.10;;;5.40;;
29568;SDS011;16501;51.462;14.346;2023-08-24T03:45:32;9.63;;;4.40;;
29568;SDS011;16501;51.462;14.346;2023-08-24T03:47:57;4.97;;;4.45;;
29568;SDS011;16501;51.462;14.346;2023-08-24T03:50:23;6.60;;;5.03;;
29568;SDS011;16501;51.462;14.346;2023-08-24T03:52:49;7.75;;;4.72;;
29568;SDS011;16501;51.462;14.346;2023-08-24T03:55:15;7.28;;;4.95;;
29568;SDS011;16501;51.462;14.346;2023-08-24T03:57:40;5.18;;;4.63;;
29568;SDS011;16501;51.462;14.346;2023-08-24T04:00:06;9.77;;;4.80;;
29568;SDS011;16501;51.462;14.346;2023-08-24T04:02:36;7.72;;;4.75;;
29568;SDS011;16501;51.462;14.346;2023-08-24T04:05:01;8.20;;;5.50;;
29568;SDS011;16501;51.462;14.346;2023-08-24T04:07:26;6.25;;;5.28;;
29568;SDS011;16501;51.462;14.346;2023-08-24T04:09:52;6.13;;;4.78;;
29568;SDS011;16501;51.462;14.346;2023-08-24T04:12:17;10.18;;;5.47;;
29568;SDS011;16501;51.462;14.346;2023-08-24T04:14:42;7.47;;;5.47;;
29568;SDS011;16501;51.462;14.346;2023-08-24T04:17:07;5.45;;;4.85;;
29568;SDS011;16501;51.462;14.346;2023-08-24T04:19:33;6.00;;;5.40;;
29568;SDS011;16501;51.462;14.346;2023-08-24T04:21:58;6.75;;;5.38;;
29568;SDS011;16501;51.462;14.346;2023-08-24T04:24:24;6.40;;;5.18;;
29568;SDS011;16501;51.462;14.346;2023-08-24T04:26:50;7.15;;;5.25;;
29568;SDS011;16501;51.462;14.346;2023-08-24T04:29:15;6.18;;;5.68;;
29568;SDS011;16501;51.462;14.346;2023-08-24T04:31:40;5.40;;;4.85;;
29568;SDS011;16501;51.462;14.346;2023-08-24T04:34:07;6.55;;;5.25;;
29568;SDS011;16501;51.462;14.346;2023-08-24T04:36:32;7.60;;;4.90;;
29568;SDS011;16501;51.462;14.346;2023-08-24T04:38:58;10.57;;;5.32;;
29568;SDS011;16501;51.462;14.346;2023-08-24T04:41:23;6.32;;;5.05;;
29568;SDS011;16501;51.462;14.346;2023-08-24T04:43:48;7.57;;;5.40;;
29568;SDS011;16501;51.462;14.346;2023-08-24T04:46:13;9.57;;;5.85;;
29568;SDS011;16501;51.462;14.346;2023-08-24T04:48:39;6.03;;;5.43;;
29568;SDS011;16501;51.462;14.346;2023-08-24T04:51:04;5.82;;;5.30;;
29568;SDS011;16501;51.462;14.346;2023-08-24T04:53:29;6.00;;;5.40;;
29568;SDS011;16501;51.462;14.346;2023-08-24T04:55:55;6.15;;;5.00;;
29568;SDS011;16501;51.462;14.346;2023-08-24T04:58:20;6.93;;;5.40;;
29568;SDS011;16501;51.462;14.346;2023-08-24T05:00:46;5.78;;;5.20;;
29568;SDS011;16501;51.462;14.346;2023-08-24T05:03:11;5.65;;;4.97;;
29568;SDS011;16501;51.462;14.346;2023-08-24T05:05:37;11.25;;;5.38;;
29568;SDS011;16501;51.462;14.346;2023-08-24T05:08:03;5.70;;;4.93;;
29568;SDS011;16501;51.462;14.346;2023-08-24T05:10:31;6.20;;;5.60;;
29568;SDS011;16501;51.462;14.346;2023-08-24T05:12:58;9.13;;;5.55;;
29568;SDS011;16501;51.462;14.346;2023-08-24T05:15:23;9.55;;;6.57;;
29568;SDS011;16501;51.462;14.346;2023-08-24T05:17:49;9.38;;;5.45;;
29568;SDS011;16501;51.462;14.346;2023-08-24T05:20:15;8.18;;;5.78;;
29568;SDS011;16501;51.462;14.346;2023-08-24T05:22:40;7.78;;;5.45;;
29568;SDS011;16501;51.462;14.346;2023-08-24T05:25:05;6.13;;;5.07;;
29568;SDS011;16501;51.462;14.346;2023-08-24T05:27:31;12.38;;;5.78;;
29568;SDS011;16501;51.462;14.346;2023-08-24T05:29:57;6.40;;;5.28;;
29568;SDS011;16501;51.462;14.346;2023-08-24T05:32:22;9.05;;;5.57;;
29568;SDS011;16501;51.462;14.346;2023-08-24T05:34:48;7.65;;;6.05;;
29568;SDS011;16501;51.462;14.346;2023-08-24T05:37:13;6.53;;;5.90;;
29568;SDS011;16501;51.462;14.346;2023-08-24T05:39:39;6.55;;;5.90;;
29568;SDS011;16501;51.462;14.346;2023-08-24T05:42:04;6.55;;;5.85;;
29568;SDS011;16501;51.462;14.346;2023-08-24T05:44:30;7.35;;;6.30;;
29568;SDS011;16501;51.462;14.346;2023-08-24T05:46:55;10.25;;;6.03;;
29568;SDS011;16501;51.462;14.346;2023-08-24T05:49:20;9.35;;;5.95;;
29568;SDS011;16501;51.462;14.346;2023-08-24T05:51:46;8.30;;;5.85;;
29568;SDS011;16501;51.462;14.346;2023-08-24T05:54:11;10.00;;;6.50;;
29568;SDS011;16501;51.462;14.346;2023-08-24T05:56:38;7.75;;;5.95;;
29568;SDS011;16501;51.462;14.346;2023-08-24T05:59:03;6.35;;;5.75;;
29568;SDS011;16501;51.462;14.346;2023-08-24T06:01:29;9.65;;;5.57;;
29568;SDS011;16501;51.462;14.346;2023-08-24T06:03:54;7.53;;;5.85;;
29568;SDS011;16501;51.462;14.346;2023-08-24T06:06:19;7.00;;;5.53;;
29568;SDS011;16501;51.462;14.346;2023-08-24T06:08:44;8.63;;;5.80;;
29568;SDS011;16501;51.462;14.346;2023-08-24T06:11:10;9.45;;;5.50;;
29568;SDS011;16501;51.462;14.346;2023-08-24T06:13:35;9.27;;;6.05;;
29568;SDS011;16501;51.462;14.346;2023-08-24T06:16:00;7.32;;;5.80;;
29568;SDS011;16501;51.462;14.346;2023-08-24T06:18:26;7.05;;;5.63;;
29568;SDS011;16501;51.462;14.346;2023-08-24T06:20:52;10.57;;;5.47;;
29568;SDS011;16501;51.462;14.346;2023-08-24T06:23:18;7.65;;;5.22;;
29568;SDS011;16501;51.462;14.346;2023-08-24T06:25:44;6.00;;;5.10;;
29568;SDS011;16501;51.462;14.346;2023-08-24T06:28:10;6.05;;;5.13;;
29568;SDS011;16501;51.462;14.346;2023-08-24T06:30:38;7.50;;;4.70;;
29568;SDS011;16501;51.462;14.346;2023-08-24T06:33:04;7.88;;;4.90;;
29568;SDS011;16501;51.462;14.346;2023-08-24T06:35:30;11.35;;;4.63;;
29568;SDS011;16501;51.462;14.346;2023-08-24T06:37:56;6.47;;;4.60;;
29568;SDS011;16501;51.462;14.346;2023-08-24T06:40:22;6.18;;;4.38;;
29568;SDS011;16501;51.462;14.346;2023-08-24T06:42:47;6.68;;;4.20;;
29568;SDS011;16501;51.462;14.346;2023-08-24T06:45:12;6.53;;;4.32;;
29568;SDS011;16501;51.462;14.346;2023-08-24T06:47:39;8.65;;;4.20;;
29568;SDS011;16501;51.462;14.346;2023-08-24T06:50:04;7.72;;;4.13;;
29568;SDS011;16501;51.462;14.346;2023-08-24T06:52:31;4.57;;;3.83;;
29568;SDS011;16501;51.462;14.346;2023-08-24T06:54:56;4.82;;;4.10;;
29568;SDS011;16501;51.462;14.346;2023-08-24T06:57:22;5.78;;;3.83;;
29568;SDS011;16501;51.462;14.346;2023-08-24T06:59:47;5.88;;;3.97;;
29568;SDS011;16501;51.462;14.346;2023-08-24T07:02:12;4.00;;;3.65;;
29568;SDS011;16501;51.462;14.346;2023-08-24T07:04:38;7.68;;;4.13;;
29568;SDS011;16501;51.462;14.346;2023-08-24T07:07:05;4.70;;;4.22;;
29568;SDS011;16501;51.462;14.346;2023-08-24T07:09:30;6.65;;;4.65;;
29568;SDS011;16501;51.462;14.346;2023-08-24T07:11:56;12.30;;;4.47;;
29568;SDS011;16501;51.462;14.346;2023-08-24T07:14:21;4.90;;;4.45;;
29568;SDS011;16501;51.462;14.346;2023-08-24T07:16:46;4.57;;;4.28;;
29568;SDS011;16501;51.462;14.346;2023-08-24T07:19:11;8.05;;;4.63;;
29568;SDS011;16501;51.462;14.346;2023-08-24T07:21:37;5.78;;;3.90;;
29568;SDS011;16501;51.462;14.346;2023-08-24T07:24:02;6.22;;;4.82;;
29568;SDS011;16501;51.462;14.346;2023-08-24T07:26:28;3.97;;;3.63;;
29568;SDS011;16501;51.462;14.346;2023-08-24T07:28:55;4.65;;;3.55;;
29568;SDS011;16501;51.462;14.346;2023-08-24T07:31:20;9.82;;;3.80;;
29568;SDS011;16501;51.462;14.346;2023-08-24T07:33:47;4.40;;;3.42;;
29568;SDS011;16501;51.462;14.346;2023-08-24T07:36:13;3.90;;;3.50;;
29568;SDS011;16501;51.462;14.346;2023-08-24T07:38:38;3.78;;;3.47;;
29568;SDS011;16501;51.462;14.346;2023-08-24T07:41:04;4.63;;;3.75;;
29568;SDS011;16501;51.462;14.346;2023-08-24T07:43:31;6.05;;;3.90;;
29568;SDS011;16501;51.462;14.346;2023-08-24T07:45:56;4.05;;;3.72;;
29568;SDS011;16501;51.462;14.346;2023-08-24T07:48:21;3.67;;;3.22;;
29568;SDS011;16501;51.462;14.346;2023-08-24T07:50:46;4.18;;;3.47;;
29568;SDS011;16501;51.462;14.346;2023-08-24T07:53:12;4.53;;;3.50;;
29568;SDS011;16501;51.462;14.346;2023-08-24T07:55:37;4.93;;;3.33;;
29568;SDS011;16501;51.462;14.346;2023-08-24T07:58:03;6.25;;;3.20;;
29568;SDS011;16501;51.462;14.346;2023-08-24T08:00:29;3.65;;;3.33;;
29568;SDS011;16501;51.462;14.346;2023-08-24T08:02:54;3.80;;;3.40;;
29568;SDS011;16501;51.462;14.346;2023-08-24T08:05:19;5.88;;;3.47;;
29568;SDS011;16501;51.462;14.346;2023-08-24T08:07:44;3.60;;;3.17;;
29568;SDS011;16501;51.462;14.346;2023-08-24T08:10:12;4.82;;;3.20;;
29568;SDS011;16501;51.462;14.346;2023-08-24T08:12:37;4.80;;;3.78;;
29568;SDS011;16501;51.462;14.346;2023-08-24T08:15:03;6.40;;;3.17;;
29568;SDS011;16501;51.462;14.346;2023-08-24T08:17:28;3.70;;;3.15;;
29568;SDS011;16501;51.462;14.346;2023-08-24T08:19:55;3.03;;;2.83;;
29568;SDS011;16501;51.462;14.346;2023-08-24T08:22:20;7.78;;;3.42;;
29568;SDS011;16501;51.462;14.346;2023-08-24T08:24:46;6.57;;;3.38;;
29568;SDS011;16501;51.462;14.346;2023-08-24T08:27:11;4.13;;;3.20;;
29568;SDS011;16501;51.462;14.346;2023-08-24T08:29:36;6.85;;;3.22;;
29568;SDS011;16501;51.462;14.346;2023-08-24T08:32:01;6.88;;;3.38;;
29568;SDS011;16501;51.462;14.346;2023-08-24T08:34:27;4.32;;;3.00;;
29568;SDS011;16501;51.462;14.346;2023-08-24T08:36:52;4.25;;;3.35;;
29568;SDS011;16501;51.462;14.346;2023-08-24T08:39:17;4.07;;;3.55;;
29568;SDS011;16501;51.462;14.346;2023-08-24T08:41:43;5.00;;;3.15;;
29568;SDS011;16501;51.462;14.346;2023-08-24T08:44:12;5.07;;;3.47;;
29568;SDS011;16501;51.462;14.346;2023-08-24T08:46:39;5.03;;;3.53;;
29568;SDS011;16501;51.462;14.346;2023-08-24T08:49:06;5.28;;;3.42;;
29568;SDS011;16501;51.462;14.346;2023-08-24T08:51:33;4.85;;;3.30;;
29568;SDS011;16501;51.462;14.346;2023-08-24T08:54:01;4.95;;;3.20;;
29568;SDS011;16501;51.462;14.346;2023-08-24T08:56:27;6.40;;;3.17;;
29568;SDS011;16501;51.462;14.346;2023-08-24T08:58:54;5.80;;;3.00;;
29568;SDS011;16501;51.462;14.346;2023-08-24T09:01:20;3.30;;;3.00;;
29568;SDS011;16501;51.462;14.346;2023-08-24T09:03:47;3.33;;;3.03;;
29568;SDS011;16501;51.462;14.346;2023-08-24T09:06:13;5.88;;;3.10;;
29568;SDS011;16501;51.462;14.346;2023-08-24T09:08:39;5.13;;;3.53;;
29568;SDS011;16501;51.462;14.346;2023-08-24T09:11:04;7.38;;;3.22;;
29568;SDS011;16501;51.462;14.346;2023-08-24T09:13:33;10.43;;;3.72;;
29568;SDS011;16501;51.462;14.346;2023-08-24T09:16:16;2.90;;;2.70;;
29568;SDS011;16501;51.462;14.346;2023-08-24T09:18:46;5.72;;;3.10;;
29568;SDS011;16501;51.462;14.346;2023-08-24T09:21:12;3.20;;;2.90;;
29568;SDS011;16501;51.462;14.346;2023-08-24T09:23:52;7.15;;;2.90;;
29568;SDS011;16501;51.462;14.346;2023-08-24T09:26:28;3.85;;;2.80;;
29568;SDS011;16501;51.462;14.346;2023-08-24T09:28:58;5.50;;;2.55;;
29568;SDS011;16501;51.462;14.346;2023-08-24T09:31:37;5.95;;;3.22;;
29568;SDS011;16501;51.462;14.346;2023-08-24T09:34:03;2.80;;;2.47;;
29568;SDS011;16501;51.462;14.346;2023-08-24T09:36:32;5.07;;;3.13;;
29568;SDS011;16501;51.462;14.346;2023-08-24T09:38:59;7.95;;;2.90;;
29568;SDS011;16501;51.462;14.346;2023-08-24T09:41:38;4.32;;;2.70;;
29568;SDS011;16501;51.462;14.346;2023-08-24T09:44:05;14.98;;;3.55;;
29568;SDS011;16501;51.462;14.346;2023-08-24T09:46:31;7.18;;;3.17;;
29568;SDS011;16501;51.462;14.346;2023-08-24T09:48:56;3.33;;;2.90;;
29568;SDS011;16501;51.462;14.346;2023-08-24T09:51:25;7.47;;;2.60;;
29568;SDS011;16501;51.462;14.346;2023-08-24T09:53:52;4.63;;;3.22;;
29568;SDS011;16501;51.462;14.346;2023-08-24T09:56:22;6.63;;;2.83;;
29568;SDS011;16501;51.462;14.346;2023-08-24T09:58:50;6.47;;;3.00;;
29568;SDS011;16501;51.462;14.346;2023-08-24T10:01:16;6.88;;;3.30;;
29568;SDS011;16501;51.462;14.346;2023-08-24T10:03:44;6.63;;;2.83;;
29568;SDS011;16501;51.462;14.346;2023-08-24T10:06:10;8.32;;;3.22;;
29568;SDS011;16501;51.462;14.346;2023-08-24T10:08:37;6.07;;;3.00;;
29568;SDS011;16501;51.462;14.346;2023-08-24T10:11:04;10.93;;;3.10;;
29568;SDS011;16501;51.462;14.346;2023-08-24T10:16:18;5.97;;;3.15;;
29568;SDS011;16501;51.462;14.346;2023-08-24T10:18:45;3.47;;;2.90;;
29568;SDS011;16501;51.462;14.346;2023-08-24T10:21:12;5.93;;;3.22;;
29568;SDS011;16501;51.462;14.346;2023-08-24T10:23:38;5.90;;;3.35;;
29568;SDS011;16501;51.462;14.346;2023-08-24T10:26:04;5.72;;;3.60;;
29568;SDS011;16501;51.462;14.346;2023-08-24T10:28:32;13.27;;;5.35;;
29568;SDS011;16501;51.462;14.346;2023-08-24T10:30:58;6.00;;;3.58;;
29568;SDS011;16501;51.462;14.346;2023-08-24T10:33:24;7.68;;;3.65;;
29568;SDS011;16501;51.462;14.346;2023-08-24T10:35:51;4.15;;;3.47;;
29568;SDS011;16501;51.462;14.346;2023-08-24T10:38:24;4.90;;;3.15;;
29568;SDS011;16501;51.462;14.346;2023-08-24T10:40:51;4.57;;;3.60;;
29568;SDS011;16501;51.462;14.346;2023-08-24T10:43:17;3.70;;;3.40;;
29568;SDS011;16501;51.462;14.346;2023-08-24T10:49:15;4.63;;;3.38;;
29568;SDS011;16501;51.462;14.346;2023-08-24T10:53:45;6.32;;;3.38;;
29568;SDS011;16501;51.462;14.346;2023-08-24T10:56:16;8.40;;;4.03;;
29568;SDS011;16501;51.462;14.346;2023-08-24T10:58:46;9.15;;;3.40;;
29568;SDS011;16501;51.462;14.346;2023-08-24T11:01:16;4.00;;;3.60;;
29568;SDS011;16501;51.462;14.346;2023-08-24T11:03:50;8.48;;;3.88;;
29568;SDS011;16501;51.462;14.346;2023-08-24T11:06:23;6.40;;;3.60;;
29568;SDS011;16501;51.462;14.346;2023-08-24T11:11:40;9.35;;;4.13;;
29568;SDS011;16501;51.462;14.346;2023-08-24T11:14:15;5.70;;;3.70;;
29568;SDS011;16501;51.462;14.346;2023-08-24T11:16:42;6.13;;;3.92;;
29568;SDS011;16501;51.462;14.346;2023-08-24T11:19:10;5.30;;;3.97;;
29568;SDS011;16501;51.462;14.346;2023-08-24T11:21:37;4.25;;;3.85;;
29568;SDS011;16501;51.462;14.346;2023-08-24T11:24:03;6.95;;;3.85;;
29568;SDS011;16501;51.462;14.346;2023-08-24T11:26:30;5.63;;;3.92;;
29568;SDS011;16501;51.462;14.346;2023-08-24T11:28:56;8.15;;;3.90;;
29568;SDS011;16501;51.462;14.346;2023-08-24T11:31:22;8.70;;;3.88;;
29568;SDS011;16501;51.462;14.346;2023-08-24T11:33:53;9.98;;;3.78;;
29568;SDS011;16501;51.462;14.346;2023-08-24T11:36:20;6.18;;;4.00;;
29568;SDS011;16501;51.462;14.346;2023-08-24T11:38:46;5.07;;;4.25;;
29568;SDS011;16501;51.462;14.346;2023-08-24T11:41:15;7.95;;;4.30;;
29568;SDS011;16501;51.462;14.346;2023-08-24T11:43:44;4.40;;;4.00;;
29568;SDS011;16501;51.462;14.346;2023-08-24T11:46:10;10.57;;;4.28;;
29568;SDS011;16501;51.462;14.346;2023-08-24T11:48:37;12.00;;;4.47;;
29568;SDS011;16501;51.462;14.346;2023-08-24T11:51:07;7.18;;;4.07;;
29568;SDS011;16501;51.462;14.346;2023-08-24T11:53:36;5.38;;;4.20;;
29568;SDS011;16501;51.462;14.346;2023-08-24T11:56:02;4.47;;;4.05;;
29568;SDS011;16501;51.462;14.346;2023-08-24T11:58:28;7.03;;;3.53;;
29568;SDS011;16501;51.462;14.346;2023-08-24T12:00:53;9.18;;;4.07;;
29568;SDS011;16501;51.462;14.346;2023-08-24T12:03:18;4.88;;;4.45;;
29568;SDS011;16501;51.462;14.346;2023-08-24T12:05:44;8.02;;;3.97;;
29568;SDS011;16501;51.462;14.346;2023-08-24T12:08:10;5.75;;;4.53;;
29568;SDS011;16501;51.462;14.346;2023-08-24T12:10:40;5.00;;;4.20;;
29568;SDS011;16501;51.462;14.346;2023-08-24T12:13:07;7.68;;;4.50;;
29568;SDS011;16501;51.462;14.346;2023-08-24T12:15:35;5.87;;;4.73;;
29568;SDS011;16501;51.462;14.346;2023-08-24T12:18:09;9.15;;;4.38;;
29568;SDS011;16501;51.462;14.346;2023-08-24T12:20:35;9.73;;;4.93;;
29568;SDS011;16501;51.462;14.346;2023-08-24T12:23:01;6.30;;;4.65;;
29568;SDS011;16501;51.462;14.346;2023-08-24T12:25:26;8.20;;;4.65;;
29568;SDS011;16501;51.462;14.346;2023-08-24T12:27:52;8.48;;;4.85;;
29568;SDS011;16501;51.462;14.346;2023-08-24T12:30:18;8.43;;;4.50;;
29568;SDS011;16501;51.462;14.346;2023-08-24T12:32:48;8.95;;;5.30;;
29568;SDS011;16501;51.462;14.346;2023-08-24T12:35:15;12.68;;;5.70;;
29568;SDS011;16501;51.462;14.346;2023-08-24T12:37:41;7.97;;;4.88;;
29568;SDS011;16501;51.462;14.346;2023-08-24T12:40:06;10.85;;;5.03;;
29568;SDS011;16501;51.462;14.346;2023-08-24T12:42:32;5.22;;;4.72;;
29568;SDS011;16501;51.462;14.346;2023-08-24T12:44:58;9.52;;;4.68;;
29568;SDS011;16501;51.462;14.346;2023-08-24T12:47:23;6.60;;;4.77;;
29568;SDS011;16501;51.462;14.346;2023-08-24T12:49:48;6.88;;;4.57;;
29568;SDS011;16501;51.462;14.346;2023-08-24T12:52:15;6.47;;;4.47;;
29568;SDS011;16501;51.462;14.346;2023-08-24T12:54:41;7.68;;;4.05;;
29568;SDS011;16501;51.462;14.346;2023-08-24T12:57:06;6.88;;;4.35;;
29568;SDS011;16501;51.462;14.346;2023-08-24T12:59:31;6.70;;;4.07;;
29568;SDS011;16501;51.462;14.346;2023-08-24T13:01:57;5.07;;;4.47;;
29568;SDS011;16501;51.462;14.346;2023-08-24T13:04:22;4.63;;;4.22;;
29568;SDS011;16501;51.462;14.346;2023-08-24T13:06:47;4.63;;;4.07;;
29568;SDS011;16501;51.462;14.346;2023-08-24T13:09:12;8.30;;;4.17;;
29568;SDS011;16501;51.462;14.346;2023-08-24T13:11:38;11.10;;;4.43;;
29568;SDS011;16501;51.462;14.346;2023-08-24T13:14:04;5.20;;;4.13;;
29568;SDS011;16501;51.462;14.346;2023-08-24T13:16:29;6.00;;;4.03;;
29568;SDS011;16501;51.462;14.346;2023-08-24T13:18:55;6.25;;;4.13;;
29568;SDS011;16501;51.462;14.346;2023-08-24T13:21:20;6.20;;;4.13;;
29568;SDS011;16501;51.462;14.346;2023-08-24T13:23:45;4.90;;;4.00;;
29568;SDS011;16501;51.462;14.346;2023-08-24T13:26:18;4.97;;;4.00;;
29568;SDS011;16501;51.462;14.346;2023-08-24T13:28:44;6.95;;;3.55;;
29568;SDS011;16501;51.462;14.346;2023-08-24T13:31:10;4.18;;;3.78;;
29568;SDS011;16501;51.462;14.346;2023-08-24T13:33:35;10.10;;;3.50;;
29568;SDS011;16501;51.462;14.346;2023-08-24T13:36:00;5.83;;;3.77;;
29568;SDS011;16501;51.462;14.346;2023-08-24T13:38:27;6.13;;;3.70;;
29568;SDS011;16501;51.462;14.346;2023-08-24T13:40:52;10.33;;;4.27;;
29568;SDS011;16501;51.462;14.346;2023-08-24T13:43:17;8.33;;;4.17;;
29568;SDS011;16501;51.462;14.346;2023-08-24T13:45:44;11.32;;;3.72;;
29568;SDS011;16501;51.462;14.346;2023-08-24T13:48:10;8.07;;;3.60;;
29568;SDS011;16501;51.462;14.346;2023-08-24T13:50:35;4.83;;;3.53;;
29568;SDS011;16501;51.462;14.346;2023-08-24T13:53:00;5.97;;;3.63;;
29568;SDS011;16501;51.462;14.346;2023-08-24T13:55:25;3.53;;;3.22;;
29568;SDS011;16501;51.462;14.346;2023-08-24T13:57:51;6.93;;;3.60;;
29568;SDS011;16501;51.462;14.346;2023-08-24T14:00:16;4.07;;;3.30;;
29568;SDS011;16501;51.462;14.346;2023-08-24T14:02:42;6.88;;;3.95;;
29568;SDS011;16501;51.462;14.346;2023-08-24T14:05:07;4.83;;;3.70;;
29568;SDS011;16501;51.462;14.346;2023-08-24T14:07:34;5.75;;;3.85;;
29568;SDS011;16501;51.462;14.346;2023-08-24T14:10:00;4.95;;;3.17;;
29568;SDS011;16501;51.462;14.346;2023-08-24T14:12:25;7.03;;;3.10;;
29568;SDS011;16501;51.462;14.346;2023-08-24T14:14:51;5.50;;;3.67;;
29568;SDS011;16501;51.462;14.346;2023-08-24T14:17:16;3.67;;;3.37;;
29568;SDS011;16501;51.462;14.346;2023-08-24T14:19:41;6.60;;;3.80;;
29568;SDS011;16501;51.462;14.346;2023-08-24T14:22:06;8.40;;;3.90;;
29568;SDS011;16501;51.462;14.346;2023-08-24T14:24:32;5.43;;;3.60;;
29568;SDS011;16501;51.462;14.346;2023-08-24T14:26:59;3.90;;;3.50;;
29568;SDS011;16501;51.462;14.346;2023-08-24T14:29:24;9.55;;;4.00;;
29568;SDS011;16501;51.462;14.346;2023-08-24T14:31:50;5.70;;;3.50;;
29568;SDS011;16501;51.462;14.346;2023-08-24T14:34:15;5.33;;;3.70;;
29568;SDS011;16501;51.462;14.346;2023-08-24T14:36:40;4.80;;;3.97;;
29568;SDS011;16501;51.462;14.346;2023-08-24T14:39:06;6.95;;;3.80;;